Westville, Connecticut
Current Conditions -  °F | °C
As of 11:53 AM on Friday 21 Nov 2014 (Local Time) from KHVN Reporting Station
Scattered Clouds Scattered Clouds  
Wind Chill: 29°   Ceiling: Unl
Heat Index: 37°   Visibility: 10mi
Dew Point: 11°   Wind: 13mph
Humidity: 34%   Direction: 310°NW
Pressure: 30.22"   Gusts: 22mph
Location:  41.3258°N, 72.9705°W
Report Text: KHVN 211653Z 31011G19KT 10SM SCT040 03/M12 A3022 RMK AO2 SLP233 T00281117
Loading
Personal Weather Stations






























Interactive Weather Map New forecast layout! Learn more

10-Day Weather Forecast

Advertisements
Track Severe Weather on mobile